.
WxDataArchive / Data Records for 2011-07-11
2011-07-10 July 2011 2011-07-12

Data Records for Monday, 11 July 2011

Time	Temp	Chill	HIndex	Humid	Dewpt	 Wind 	HiWind	WindDir	Rain 	Barom 
-----	----	-----	------	-----	-----	------	------	-------	-----	----- 
00:00	76.5	76.5	78.4	61	62.0	0	0	---	0.00	29.892 
00:05	76.3	76.3	78.2	62	62.3	0	0	---	0.00	29.892 
00:10	76.1	76.1	78.1	61	61.7	0	0	---	0.00	29.892 
00:15	76.0	76.0	78.0	62	62.0	0	0	---	0.00	29.892 
00:20	75.8	75.8	77.8	62	61.8	0	0	---	0.00	29.892 
00:25	75.6	75.6	77.7	62	61.6	0	0	---	0.00	29.892 
00:30	75.4	75.4	77.5	62	61.5	0	0	---	0.00	29.894 
00:35	75.4	75.4	77.5	63	61.9	0	0	---	0.00	29.894 
00:40	75.4	75.4	77.5	63	61.9	0	0	---	0.00	29.894 
00:45	75.3	75.3	77.4	63	61.8	0	0	---	0.00	29.892 
00:50	75.3	75.3	77.4	64	62.3	0	0	---	0.00	29.892 
00:55	75.1	75.1	77.2	64	62.1	0	0	---	0.00	29.892 
01:00	75.1	75.1	77.2	64	62.1	0	0	---	0.00	29.893 
01:05	74.9	74.9	74.9	64	61.9	0	0	---	0.00	29.893 
01:10	75.1	75.1	77.2	64	62.1	0	0	---	0.00	29.893 
01:15	75.1	75.1	77.2	64	62.1	0	0	---	0.00	29.889 
01:20	75.1	75.1	77.2	64	62.1	0	0	---	0.00	29.889 
01:25	74.9	74.9	74.9	65	62.3	0	0	---	0.00	29.889 
01:30	74.9	74.9	74.9	65	62.3	0	0	---	0.00	29.889 
01:35	75.1	75.1	77.2	64	62.1	0	0	---	0.00	29.889 
01:40	75.1	75.1	77.2	64	62.1	0	0	---	0.00	29.889 
01:45	75.3	75.3	77.4	64	62.3	0	0	---	0.00	29.883 
01:50	75.4	75.4	77.4	64	62.4	0	0	---	0.00	29.883 
01:55	75.6	75.6	77.6	64	62.5	0	0	---	0.00	29.883 
02:00	75.6	75.6	77.6	64	62.5	0	0	---	0.00	29.882 
02:05	75.6	75.6	77.6	63	62.1	0	0	---	0.00	29.882 
02:10	75.6	75.6	77.6	63	62.1	0	0	---	0.00	29.882 
02:15	75.6	75.6	77.6	63	62.1	0	0	---	0.00	29.882 
02:20	75.6	75.6	77.6	64	62.5	0	0	---	0.00	29.882 
02:25	75.4	75.4	77.4	64	62.4	0	0	---	0.00	29.882 
02:30	75.4	75.4	77.4	64	62.4	0	0	---	0.00	29.874 
02:35	75.3	75.3	77.4	64	62.3	0	1	68	0.00	29.874 
02:40	75.3	75.3	77.4	64	62.3	0	0	---	0.00	29.874 
02:45	75.1	75.1	77.2	64	62.1	0	1	68	0.00	29.874 
02:50	75.1	75.1	77.2	64	62.1	0	0	---	0.00	29.874 
02:55	74.9	74.9	74.9	64	61.9	0	0	---	0.00	29.874 
03:00	74.7	74.7	74.7	65	62.1	0	0	---	0.00	29.875 
03:05	74.6	74.6	74.6	65	62.0	0	0	---	0.00	29.875 
03:10	74.6	74.6	74.6	65	62.0	0	0	---	0.00	29.875 
03:15	74.4	74.4	74.4	66	62.3	0	0	---	0.00	29.870 
03:20	74.2	74.2	74.2	66	62.1	0	0	---	0.00	29.870 
03:25	74.0	74.0	74.0	66	61.9	0	0	---	0.00	29.870 
03:30	73.9	73.9	73.9	67	62.2	0	0	---	0.00	29.873 
03:35	73.5	73.5	73.5	67	61.9	0	0	---	0.00	29.873 
03:40	73.3	73.3	73.3	68	62.1	0	0	---	0.00	29.873 
03:45	73.2	73.2	73.2	68	62.0	0	0	---	0.00	29.872 
03:50	72.8	72.8	72.8	69	62.0	0	0	---	0.00	29.872 
03:55	72.7	72.7	72.7	69	61.9	0	0	---	0.00	29.872 
04:00	72.5	72.5	72.5	70	62.1	0	0	---	0.00	29.867 
04:05	72.3	72.3	72.3	71	62.4	0	0	---	0.00	29.867 
04:10	72.1	72.1	72.1	72	62.6	0	0	---	0.00	29.867 
04:15	72.0	72.0	72.0	72	62.5	0	0	---	0.00	29.866 
04:20	71.8	71.8	71.8	73	62.7	0	0	---	0.00	29.866 
04:25	71.8	71.8	71.8	73	62.7	0	0	---	0.00	29.866 
04:30	71.6	71.6	71.6	73	62.5	0	0	---	0.00	29.860 
04:35	71.6	71.6	71.6	74	62.9	0	0	---	0.00	29.860 
04:40	71.5	71.5	71.5	74	62.8	0	0	---	0.00	29.860 
04:45	71.5	71.5	71.5	74	62.8	0	0	---	0.00	29.859 
04:50	71.5	71.5	71.5	75	63.1	0	0	---	0.00	29.859 
04:55	71.6	71.6	71.6	75	63.2	0	0	---	0.00	29.859 
05:00	71.6	71.6	71.6	75	63.2	0	0	---	0.00	29.856 
05:05	71.6	71.6	71.6	75	63.2	0	0	---	0.00	29.856 
05:10	71.6	71.6	71.6	75	63.2	0	0	---	0.00	29.856 
05:15	71.5	71.5	71.5	75	63.1	0	0	---	0.00	29.852 
05:20	71.5	71.5	71.5	76	63.5	0	0	---	0.00	29.852 
05:25	71.5	71.5	71.5	76	63.5	0	0	---	0.00	29.852 
05:30	71.5	71.5	71.5	76	63.5	0	0	---	0.00	29.848 
05:35	71.5	71.5	71.5	76	63.5	0	0	---	0.00	29.848 
05:40	71.5	71.5	71.5	76	63.5	0	0	---	0.00	29.848 
05:45	71.5	71.5	71.5	77	63.9	0	0	---	0.00	29.857 
05:50	71.5	71.5	71.5	77	63.9	0	0	---	0.00	29.857 
05:55	71.5	71.5	71.5	77	63.9	0	0	---	0.00	29.857 
06:00	71.5	71.5	71.5	77	63.9	0	0	---	0.00	29.855 
06:05	71.5	71.5	71.5	77	63.9	0	0	---	0.00	29.855 
06:10	71.6	71.6	71.6	78	64.4	0	0	---	0.00	29.855 
06:15	71.6	71.6	71.6	78	64.4	0	0	---	0.00	29.844 
06:20	71.8	71.8	71.8	77	64.2	0	0	---	0.00	29.844 
06:25	71.8	71.8	71.8	78	64.6	0	0	---	0.00	29.844 
06:30	72.0	72.0	72.0	78	64.8	0	0	---	0.00	29.850 
06:35	72.0	72.0	72.0	77	64.4	0	0	---	0.00	29.850 
06:40	72.3	72.3	72.3	77	64.7	0	0	---	0.00	29.850 
06:45	72.5	72.5	72.5	77	64.9	0	1	68	0.00	29.842 
06:50	72.8	72.8	72.8	76	64.8	0	1	68	0.00	29.842 
06:55	73.0	73.0	73.0	76	65.0	0	2	68	0.00	29.842 
07:00	73.2	73.2	73.2	76	65.2	0	0	---	0.00	29.840 
07:05	73.3	73.3	73.3	76	65.3	0	0	---	0.00	29.840 
07:10	73.5	73.5	73.5	77	65.8	0	0	---	0.00	29.840 
07:15	73.5	73.5	73.5	76	65.5	0	0	---	0.00	29.843 
07:20	73.7	73.7	73.7	77	66.0	0	0	---	0.00	29.843 
07:25	73.9	73.9	73.9	77	66.2	0	0	---	0.00	29.843 
07:30	74.2	74.2	74.2	77	66.5	0	0	---	0.00	29.857 
07:35	74.4	74.4	74.4	77	66.7	0	0	---	0.00	29.857 
07:40	74.7	74.7	74.7	76	66.6	0	1	68	0.00	29.857 
07:45	75.1	75.1	76.2	76	67.0	0	0	---	0.00	29.862 
07:50	75.4	75.4	76.6	75	66.9	0	1	68	0.00	29.862 
07:55	75.8	75.8	77.3	73	66.5	0	1	68	0.00	29.862 
08:00	76.3	76.3	77.9	72	66.6	0	3	68	0.00	29.855 
08:05	76.7	76.7	78.3	73	67.4	0	1	68	0.00	29.855 
08:10	77.2	77.2	79.0	71	67.0	0	2	68	0.00	29.855 
08:15	77.7	77.7	79.6	70	67.1	0	1	68	0.00	29.854 
08:20	78.1	78.1	80.2	70	67.5	0	1	68	0.00	29.854 
08:25	78.6	78.6	80.9	71	68.4	0	1	68	0.00	29.854 
08:30	78.8	78.8	81.3	72	69.0	0	1	68	0.00	29.844 
08:35	78.6	78.6	81.0	73	69.2	0	1	68	0.00	29.844 
08:40	78.8	78.8	81.3	73	69.4	0	2	68	0.00	29.844 
08:45	79.0	79.0	81.6	73	69.6	0	1	68	0.00	29.837 
08:50	79.0	79.0	81.6	73	69.6	0	1	68	0.00	29.837 
08:55	78.8	78.8	81.3	73	69.4	0	1	68	0.00	29.837 
09:00	79.2	79.2	81.9	72	69.4	0	2	68	0.00	29.837 
09:05	79.8	79.8	83.0	73	70.4	0	1	68	0.00	29.837 
09:10	80.3	80.3	83.4	70	69.6	0	0	---	0.00	29.837 
09:15	81.2	81.2	84.6	68	69.6	0	1	68	0.00	29.841 
09:20	81.6	81.6	85.1	67	69.6	1	3	68	0.00	29.841 
09:25	82.0	82.0	85.6	66	69.5	1	3	68	0.00	29.841 
09:30	82.4	82.4	86.1	65	69.4	0	3	0	0.00	29.841 
09:35	83.0	83.0	86.9	64	69.5	0	2	45	0.00	29.841 
09:40	83.6	83.6	87.9	64	70.1	0	2	45	0.00	29.841 
09:45	84.1	84.1	88.5	63	70.1	0	2	45	0.00	29.839 
09:50	84.5	84.5	89.0	62	70.0	0	2	45	0.00	29.839 
09:55	84.3	84.3	88.9	63	70.3	0	2	338	0.00	29.839 
10:00	84.3	84.3	89.2	64	70.8	0	4	338	0.00	29.848 
10:05	84.3	84.3	88.9	63	70.3	1	4	270	0.00	29.848 
10:10	84.5	84.5	89.6	64	71.0	0	2	270	0.00	29.848 
10:15	85.1	85.1	91.1	65	72.0	0	1	270	0.00	29.842 
10:20	86.1	86.1	92.0	62	71.5	0	2	270	0.00	29.842 
10:25	86.5	86.5	92.1	60	70.9	1	5	270	0.00	29.842 
10:30	87.0	87.0	93.1	60	71.4	1	3	338	0.00	29.826 
10:35	87.4	87.4	94.3	61	72.3	1	3	338	0.00	29.826 
10:40	87.8	87.8	95.2	61	72.6	1	6	315	0.00	29.826 
10:45	88.0	88.0	95.1	60	72.3	1	3	270	0.00	29.819 
10:50	88.0	88.0	95.1	60	72.3	1	4	270	0.00	29.819 
10:55	88.2	88.2	95.6	60	72.5	2	4	270	0.00	29.819 
11:00	88.2	88.2	96.1	61	73.0	2	5	270	0.00	29.834 
11:05	88.2	88.2	95.1	59	72.0	3	5	270	0.00	29.834 
11:10	87.8	87.8	95.2	61	72.6	2	5	270	0.00	29.834 
11:15	87.2	87.2	94.3	62	72.6	3	5	270	0.00	29.843 
11:20	87.0	87.0	94.3	63	72.8	2	5	270	0.00	29.843 
11:25	87.8	87.8	96.1	63	73.6	1	5	270	0.00	29.843 
11:30	88.6	88.6	96.5	60	72.9	2	4	270	0.00	29.815 
11:35	88.8	88.8	97.4	61	73.6	2	4	270	0.00	29.815 
11:40	88.4	88.4	96.5	61	73.2	3	6	292	0.00	29.815 
11:45	87.6	87.6	95.7	63	73.4	3	7	270	0.00	29.871 
11:50	85.7	85.7	88.9	55	67.6	6	15	315	0.00	29.871 
11:55	78.3	78.3	80.5	71	68.1	8	15	292	0.00	29.871 
12:00	74.2	74.2	74.2	82	68.3	4	12	292	0.04	29.930 
12:05	72.5	72.5	72.5	87	68.4	4	9	292	0.05	29.930 
12:10	71.8	71.8	71.8	89	68.4	1	4	292	0.05	29.930 
12:15	71.3	71.3	71.3	90	68.2	1	4	292	0.03	29.932 
12:20	70.9	70.9	70.9	91	68.1	1	3	315	0.01	29.932 
12:25	70.8	70.8	70.8	92	68.4	0	1	315	0.03	29.932 
12:30	70.8	70.8	70.8	92	68.4	0	3	315	0.00	29.902 
12:35	70.6	70.6	70.6	93	68.5	0	2	68	0.00	29.902 
12:40	70.6	70.6	70.6	93	68.5	0	2	68	0.00	29.902 
12:45	70.6	70.6	70.6	93	68.5	0	0	---	0.00	29.902 
12:50	70.6	70.6	70.6	93	68.5	0	1	68	0.00	29.902 
12:55	70.4	70.4	70.4	93	68.3	0	0	---	0.00	29.902 
13:00	70.4	70.4	70.4	94	68.6	0	0	---	0.00	29.888 
13:05	70.6	70.6	70.6	94	68.8	0	0	---	0.00	29.888 
13:10	70.6	70.6	70.6	94	68.8	0	0	---	0.00	29.888 
13:15	70.8	70.8	70.8	94	69.0	0	1	68	0.00	29.867 
13:20	70.8	70.8	70.8	94	69.0	0	1	68	0.00	29.867 
13:25	70.9	70.9	70.9	94	69.1	0	1	68	0.00	29.867 
13:30	71.1	71.1	71.1	94	69.3	0	0	---	0.00	29.841 
13:35	71.3	71.3	71.3	94	69.5	0	1	68	0.00	29.841 
13:40	71.5	71.5	71.5	94	69.7	0	1	338	0.00	29.841 
13:45	71.5	71.5	71.5	94	69.7	0	2	112	0.00	29.835 
13:50	71.5	71.5	71.5	94	69.7	1	4	90	0.00	29.835 
13:55	71.5	71.5	71.5	94	69.7	1	4	68	0.00	29.835 
14:00	71.5	71.5	71.5	94	69.7	1	3	112	0.00	29.830 
14:05	71.6	71.6	71.6	94	69.8	1	4	90	0.00	29.830 
14:10	71.5	71.5	71.5	94	69.7	1	3	90	0.00	29.830 
14:15	71.6	71.6	71.6	93	69.5	1	3	90	0.00	29.825 
14:20	71.6	71.6	71.6	93	69.5	1	4	68	0.00	29.825 
14:25	71.6	71.6	71.6	93	69.5	2	6	68	0.00	29.825 
14:30	71.8	71.8	71.8	92	69.3	1	5	90	0.00	29.818 
14:35	72.0	72.0	72.0	92	69.5	1	6	90	0.00	29.818 
14:40	72.1	72.1	72.1	92	69.6	1	6	112	0.00	29.818 
14:45	72.5	72.5	72.5	92	70.0	0	3	112	0.00	29.837 
14:50	72.8	72.8	72.8	92	70.3	0	1	112	0.00	29.837 
14:55	73.2	73.2	73.2	91	70.4	0	2	112	0.00	29.837 
15:00	73.3	73.3	73.3	90	70.2	0	3	112	0.00	29.836 
15:05	73.7	73.7	73.7	90	70.6	0	2	45	0.00	29.836 
15:10	73.9	73.9	73.9	88	70.1	1	4	68	0.00	29.836 
15:15	74.2	74.2	74.2	87	70.1	1	4	112	0.00	29.809 
15:20	74.7	74.7	74.7	86	70.2	1	5	90	0.00	29.809 
15:25	75.1	75.1	75.0	85	70.3	0	2	112	0.00	29.809 
15:30	75.4	75.4	75.7	84	70.2	1	3	112	0.00	29.791 
15:35	76.0	76.0	76.7	84	70.8	1	3	90	0.00	29.791 
15:40	76.3	76.3	77.3	82	70.4	1	4	45	0.00	29.791 
15:45	76.8	76.8	78.2	82	70.9	1	3	68	0.00	29.795 
15:50	77.4	77.4	79.2	80	70.7	1	3	112	0.00	29.795 
15:55	78.1	78.1	80.5	80	71.4	0	1	112	0.00	29.795 
16:00	78.6	78.6	81.2	77	70.8	1	3	112	0.00	29.787 
16:05	79.2	79.2	82.4	78	71.7	0	1	112	0.00	29.787 
16:10	79.6	79.6	82.8	75	71.0	0	2	112	0.00	29.787 
16:15	79.9	79.9	83.3	74	70.8	0	1	112	0.00	29.803 
16:20	80.5	80.5	84.4	74	71.4	0	2	112	0.00	29.803 
16:25	80.7	80.7	84.6	73	71.2	0	2	112	0.00	29.803 
16:30	80.9	80.9	84.8	72	71.0	1	4	270	0.00	29.814 
16:35	81.1	81.1	85.3	73	71.6	0	2	270	0.00	29.814 
16:40	81.2	81.2	85.2	71	70.9	1	2	270	0.00	29.814 
16:45	81.2	81.2	85.0	70	70.5	1	2	270	0.00	29.819 
16:50	81.4	81.4	85.5	71	71.1	0	1	270	0.00	29.819 
16:55	81.6	81.6	85.5	69	70.4	0	2	270	0.00	29.819 
17:00	81.8	81.8	86.1	70	71.0	1	3	270	0.00	29.818 
17:05	82.0	82.0	86.2	69	70.8	0	2	270	0.00	29.818 
17:10	82.0	82.0	86.0	68	70.4	0	1	270	0.00	29.818 
17:15	82.2	82.2	86.6	69	71.0	0	2	270	0.00	29.815 
17:20	82.8	82.8	87.5	68	71.1	1	2	270	0.00	29.815 
17:25	83.0	83.0	87.6	67	70.9	1	3	292	0.00	29.815 
17:30	83.2	83.2	88.5	69	71.9	0	2	292	0.00	29.818 
17:35	83.4	83.4	88.9	69	72.1	0	1	292	0.00	29.818 
17:40	83.4	83.4	88.6	68	71.7	0	2	292	0.00	29.818 
17:45	83.6	83.6	89.3	69	72.3	0	2	292	0.00	29.815 
17:50	83.8	83.8	89.1	67	71.6	0	2	292	0.00	29.815 
17:55	84.1	84.1	89.1	65	71.0	1	3	292	0.00	29.815 
18:00	84.5	84.5	89.6	64	71.0	0	2	292	0.00	29.809 
18:05	84.5	84.5	89.3	63	70.5	1	2	292	0.00	29.809 
18:10	84.7	84.7	90.0	64	71.1	0	3	292	0.00	29.809 
18:15	84.9	84.9	89.4	61	69.9	0	2	292	0.00	29.799 
18:20	85.1	85.1	89.8	61	70.1	1	3	292	0.00	29.799 
18:25	85.1	85.1	90.1	62	70.6	0	3	292	0.00	29.799 
18:30	85.3	85.3	90.1	61	70.3	0	3	292	0.00	29.798 
18:35	85.5	85.5	90.5	61	70.5	1	2	292	0.00	29.798 
18:40	85.7	85.7	90.2	59	69.7	1	3	292	0.00	29.798 
18:45	85.9	85.9	90.6	59	69.9	1	4	292	0.00	29.798 
18:50	86.1	86.1	90.6	58	69.6	1	2	292	0.00	29.798 
18:55	86.3	86.3	90.9	58	69.7	1	3	292	0.00	29.798 
19:00	86.5	86.5	91.3	58	69.9	1	2	292	0.00	29.798 
19:05	86.5	86.5	91.3	58	69.9	1	4	292	0.00	29.798 
19:10	86.5	86.5	91.7	59	70.4	1	3	292	0.00	29.798 
19:15	86.5	86.5	91.7	59	70.4	1	3	292	0.00	29.796 
19:20	86.3	86.3	90.9	58	69.7	1	3	292	0.00	29.796 
19:25	86.3	86.3	91.3	59	70.2	1	4	292	0.00	29.796 
19:30	86.5	86.5	91.0	57	69.4	1	3	292	0.00	29.793 
19:35	86.3	86.3	90.6	57	69.2	1	4	292	0.00	29.793 
19:40	86.3	86.3	90.2	56	68.7	2	5	292	0.00	29.793 
19:45	86.1	86.1	90.2	57	69.1	1	4	292	0.00	29.779 
19:50	85.9	85.9	89.6	56	68.3	2	5	292	0.00	29.779 
19:55	85.9	85.9	89.2	55	67.8	3	6	315	0.00	29.779 
20:00	85.7	85.7	88.9	55	67.6	2	6	270	0.00	29.779 
20:05	85.5	85.5	88.6	55	67.5	1	3	270	0.00	29.779 
20:10	85.1	85.1	88.2	56	67.6	1	4	270	0.00	29.779 
20:15	84.7	84.7	88.1	58	68.3	0	1	270	0.00	29.792 
20:20	84.5	84.5	87.8	58	68.1	1	2	270	0.00	29.792 
20:25	84.3	84.3	87.5	58	67.9	0	2	270	0.00	29.792 
20:30	84.0	84.0	87.3	59	68.1	0	1	270	0.00	29.791 
20:35	83.8	83.8	87.2	60	68.4	0	1	270	0.00	29.791 
20:40	83.8	83.8	86.9	59	67.9	0	1	270	0.00	29.791 
20:45	83.8	83.8	87.2	60	68.4	0	1	270	0.00	29.798 
20:50	83.8	83.8	87.2	60	68.4	0	0	---	0.00	29.798 
20:55	83.6	83.6	87.1	61	68.7	0	0	---	0.00	29.798 
21:00	83.4	83.4	87.0	62	69.0	0	0	---	0.00	29.811 
21:05	83.2	83.2	86.7	62	68.8	0	0	---	0.00	29.811 
21:10	82.8	82.8	86.3	63	68.9	0	0	---	0.00	29.811 
21:15	82.4	82.4	85.6	63	68.5	0	0	---	0.00	29.808 
21:20	82.2	82.2	85.5	64	68.8	0	0	---	0.00	29.808 
21:25	81.8	81.8	84.9	64	68.4	0	0	---	0.00	29.808 
21:30	81.6	81.6	84.7	65	68.7	0	0	---	0.00	29.803 
21:35	81.4	81.4	84.6	66	68.9	0	0	---	0.00	29.803 
21:40	81.1	81.1	84.3	67	69.1	0	0	---	0.00	29.803 
21:45	80.7	80.7	83.8	68	69.1	0	0	---	0.00	29.796 
21:50	80.3	80.3	83.3	69	69.2	0	0	---	0.00	29.796 
21:55	80.1	80.1	83.0	69	69.0	0	0	---	0.00	29.796 
22:00	80.1	80.1	83.1	70	69.4	0	0	---	0.00	29.805 
22:05	79.9	79.9	82.8	70	69.2	0	0	---	0.00	29.805 
22:10	79.8	79.8	82.7	71	69.5	0	0	---	0.00	29.805 
22:15	79.6	79.6	82.5	72	69.8	0	0	---	0.00	29.805 
22:20	79.4	79.4	82.3	73	70.0	0	0	---	0.00	29.805 
22:25	79.2	79.2	82.0	73	69.8	0	0	---	0.00	29.805 
22:30	79.0	79.0	81.6	73	69.6	0	0	---	0.00	29.823 
22:35	78.8	78.8	81.4	74	69.8	0	0	---	0.00	29.823 
22:40	78.6	78.6	81.1	75	70.0	0	0	---	0.00	29.823 
22:45	78.5	78.5	81.0	75	69.9	0	0	---	0.00	29.826 
22:50	78.3	78.3	80.7	76	70.1	0	0	---	0.00	29.826 
22:55	77.9	77.9	80.0	76	69.7	0	0	---	0.00	29.826 
23:00	77.7	77.7	79.7	77	69.9	0	0	---	0.00	29.834 
23:05	77.7	77.7	79.7	77	69.9	0	0	---	0.00	29.834 
23:10	77.6	77.6	79.6	77	69.8	0	0	---	0.00	29.834 
23:15	77.4	77.4	79.3	77	69.6	0	0	---	0.00	29.836 
23:20	77.4	77.4	79.3	78	70.0	0	0	---	0.00	29.836 
23:25	77.2	77.2	78.9	78	69.8	0	0	---	0.00	29.836 
23:30	77.0	77.0	78.6	78	69.6	0	0	---	0.00	29.834 
23:35	76.8	76.8	78.3	79	69.8	0	0	---	0.00	29.834 
23:40	76.7	76.7	78.1	79	69.7	0	0	---	0.00	29.834 
23:45	76.5	76.5	77.8	80	69.9	0	0	---	0.00	29.837 
23:50	76.3	76.3	77.4	81	70.0	0	0	---	0.00	29.837 
23:55	76.1	76.1	77.1	81	69.8	0	0	---	0.00	29.837 

CoCoRaHS
IN-AL-39
A2 Web Hosting
Creative Commons License
GoDaddy
search engine by freefind advanced

loaded 2018-11-19 10:23:15 • last modified 2010-11-18 10:43:29
Privacy PolicyDisclaimer
• wx.awcolley.com is powered by PmWiki v.2002016 •
• all content (unless otherwise noted) © 2018 A W Colley